CheckWX is a tool to help pilots better visualize weather data.  It is not intended as a substitute for an official pre-flight weather briefing.

20:29:35 UTC

KMWC METAR
Lawrence J Timmerman Airport
Milwaukee, Wisconsin, USA
Current

45 mins ago

KMWC 211945Z 21013G18KT 10SM -DZ BKN011 BKN026 BKN039 22/19 A3000
Observed
Sep-21 @ 19:45 UTC
Wind
  • 210° at 13 KTS
  • Gusting to 18 KTS
Visibility
10 SM
Flight Rules
MVFR
Conditions
Light Drizzle
Cloud Levels
  • Broken at 1,100' AGL
  • Broken at 2,600' AGL
  • Broken at 3,900' AGL
Temperature
22°C / 72°F
Dewpoint
19°C / 66°F
Humidity
83%
Altimeter
30" Hg
Pressure
1015.92 hPa
Previous

2 hours ago

KMWC 211845Z 22013G22KT 10SM -DZ BKN015 BKN040 OVC100 22/18 A3001
Observed
Sep-21 @ 18:45 UTC
Wind
  • 220° at 13 KTS
  • Gusting to 22 KTS
Visibility
10 SM
Flight Rules
MVFR
Conditions
Light Drizzle
Cloud Levels
  • Broken at 1,500' AGL
  • Broken at 4,000' AGL
  • Overcast at 10,000' AGL
Temperature
22°C / 72°F
Dewpoint
18°C / 64°F
Humidity
78%
Altimeter
30.01" Hg
Pressure
1016.22 hPa
Previous

3 hours ago

KMWC 211745Z 22011G21KT 10SM BKN021 OVC027 24/18 A3002
Observed
Sep-21 @ 17:45 UTC
Wind
  • 220° at 11 KTS
  • Gusting to 21 KTS
Visibility
10 SM
Flight Rules
MVFR
Cloud Levels
  • Broken at 2,100' AGL
  • Overcast at 2,700' AGL
Temperature
24°C / 75°F
Dewpoint
18°C / 64°F
Humidity
69%
Altimeter
30.02" Hg
Pressure
1016.62 hPa